Time;durP1;ratioP1;P1;durP2;ratioP2;P2;SDS_P1;SDS_P2;PMS_P1;PMS_P2;Temp;Humidity;BMP_temperature;BMP_pressure;BME280_temperature;BME280_humidity;BME280_pressure;Samples;Min_cycle;Max_cycle;Signal;HPM_P1;HPM_P2
2021/10/26 00:01:23;;;;;;;13.57;11.52;;;;;;;12.62;52.41;95835.94;4990491;28;20408;-75
2021/10/26 00:03:48;;;;;;;12.95;10.40;;;;;;;12.56;52.61;95821.13;4990505;28;20093;-72
2021/10/26 00:06:14;;;;;;;11.48;10.18;;;;;;;12.53;52.57;95827.03;4990983;28;20066;-74
2021/10/26 00:08:39;;;;;;;12.15;10.88;;;;;;;12.47;52.29;95829.03;4992318;28;20499;-74
2021/10/26 00:11:05;;;;;;;14.10;10.57;;;;;;;12.44;52.58;95826.97;4990881;28;20039;-74
2021/10/26 00:13:31;;;;;;;11.95;10.73;;;;;;;12.43;52.60;95834.16;4990059;28;20066;-75
2021/10/26 00:15:56;;;;;;;12.20;10.30;;;;;;;12.41;52.60;95835.56;4990678;28;20659;-74
2021/10/26 00:18:22;;;;;;;11.52;10.25;;;;;;;12.26;52.49;95815.31;4990570;28;20031;-74
2021/10/26 00:20:47;;;;;;;11.57;10.38;;;;;;;12.26;52.22;95814.53;4992101;28;20027;-74
2021/10/26 00:23:12;;;;;;;14.88;11.07;;;;;;;12.26;52.74;95831.31;4990249;28;20644;-74
2021/10/26 00:25:39;;;;;;;17.98;12.35;;;;;;;12.22;52.35;95827.66;4990679;28;20080;-73
2021/10/26 00:28:05;;;;;;;11.55;10.45;;;;;;;12.17;53.02;95825.88;4989953;28;20100;-73
2021/10/26 00:30:30;;;;;;;16.98;13.68;;;;;;;12.16;52.50;95824.31;4989865;28;20046;-73
2021/10/26 00:32:56;;;;;;;10.35;9.45;;;;;;;12.20;52.53;95824.50;4989843;28;20432;-74
2021/10/26 00:35:27;;;;;;;12.82;11.38;;;;;;;12.22;52.71;95822.31;4992344;28;20030;-74
2021/10/26 00:37:52;;;;;;;15.48;11.60;;;;;;;12.25;52.62;95831.63;4989298;28;20038;-74
2021/10/26 00:40:18;;;;;;;11.30;9.88;;;;;;;12.15;52.58;95822.72;4989851;28;20527;-74
2021/10/26 00:42:43;;;;;;;11.25;9.63;;;;;;;12.13;52.38;95827.59;4987771;28;20711;-74
2021/10/26 00:45:08;;;;;;;12.63;10.40;;;;;;;12.18;52.58;95834.66;4989905;28;20149;-74
2021/10/26 00:47:34;;;;;;;13.68;12.27;;;;;;;12.11;52.30;95823.63;4991930;28;20681;-75
2021/10/26 00:50:00;;;;;;;9.68;8.65;;;;;;;12.05;52.70;95819.47;4989698;28;20217;-74
2021/10/26 00:52:26;;;;;;;10.85;9.75;;;;;;;11.98;52.53;95817.22;4990529;28;20038;-74
2021/10/26 00:54:52;;;;;;;12.73;11.30;;;;;;;12.10;52.76;95825.50;4989899;28;20034;-74
2021/10/26 00:57:22;;;;;;;15.23;12.60;;;;;;;12.08;52.87;95819.69;4989365;28;20381;-73
2021/10/26 00:59:48;;;;;;;14.75;13.15;;;;;;;12.13;52.18;95830.25;4997156;28;20021;-74
2021/10/26 01:02:13;;;;;;;10.35;8.82;;;;;;;12.12;52.62;95825.19;4990259;28;20034;-73
2021/10/26 01:04:38;;;;;;;11.70;10.32;;;;;;;12.05;52.37;95814.13;4989259;28;20050;-73
2021/10/26 01:07:04;;;;;;;12.35;11.02;;;;;;;12.10;51.94;95820.16;4989535;28;20035;-73
2021/10/26 01:09:30;;;;;;;15.27;12.35;;;;;;;12.02;52.52;95809.38;4989308;28;20037;-73
2021/10/26 01:11:56;;;;;;;11.30;10.10;;;;;;;12.05;52.53;95822.94;4989122;28;20089;-73
2021/10/26 01:14:22;;;;;;;14.88;11.52;;;;;;;11.99;52.16;95824.13;4989189;28;20030;-74
2021/10/26 01:16:48;;;;;;;12.90;10.20;;;;;;;11.89;52.19;95817.09;4989672;28;20051;-74
2021/10/26 01:19:13;;;;;;;14.27;10.23;;;;;;;11.83;52.41;95812.94;4989101;28;20504;-74
2021/10/26 01:21:39;;;;;;;12.57;11.32;;;;;;;11.78;52.20;95813.00;4989545;28;20129;-74
2021/10/26 01:24:04;;;;;;;15.90;12.05;;;;;;;11.82;52.22;95816.69;4988802;28;20037;-73
2021/10/26 01:26:32;;;;;;;18.35;13.60;;;;;;;11.86;52.48;95822.22;4990969;28;20472;-74
2021/10/26 01:28:58;;;;;;;14.05;12.13;;;;;;;11.85;52.91;95821.44;4984648;28;20053;-73
2021/10/26 01:31:23;;;;;;;14.40;12.68;;;;;;;11.88;52.45;95820.84;4989346;28;20038;-74
2021/10/26 01:33:49;;;;;;;12.57;10.77;;;;;;;11.95;52.42;95829.25;4988835;28;20038;-74
2021/10/26 01:36:17;;;;;;;12.55;10.93;;;;;;;11.93;52.29;95804.75;4989046;28;20030;-74
2021/10/26 01:38:42;;;;;;;11.45;10.15;;;;;;;12.01;52.54;95819.25;4990708;28;20058;-74
2021/10/26 01:41:08;;;;;;;13.52;12.23;;;;;;;12.11;51.96;95821.75;4989052;28;20137;-75
2021/10/26 01:43:33;;;;;;;13.82;10.30;;;;;;;12.04;51.86;95804.56;4988220;28;20053;-74
2021/10/26 01:45:59;;;;;;;8.90;8.10;;;;;;;12.18;51.95;95821.34;4989397;28;20045;-72
2021/10/26 01:48:26;;;;;;;9.75;8.73;;;;;;;12.18;51.57;95808.00;4989336;28;20496;-72
2021/10/26 01:50:52;;;;;;;8.95;7.22;;;;;;;12.21;51.95;95808.19;4988937;28;20480;-74
2021/10/26 01:53:17;;;;;;;9.32;7.88;;;;;;;12.21;51.41;95805.53;4990724;28;20033;-75
2021/10/26 01:55:43;;;;;;;7.70;7.03;;;;;;;12.21;51.83;95808.19;4988384;28;20085;-75
2021/10/26 01:58:08;;;;;;;9.10;7.18;;;;;;;12.26;52.06;95823.31;4988479;28;20062;-74
2021/10/26 02:00:34;;;;;;;7.75;6.03;;;;;;;12.16;51.34;95802.19;5000916;28;20037;-75
2021/10/26 02:02:59;;;;;;;7.10;6.40;;;;;;;12.22;51.72;95811.66;4993131;28;20030;-74
2021/10/26 02:05:25;;;;;;;7.68;6.97;;;;;;;12.17;51.23;95822.41;4990816;28;20077;-74
2021/10/26 02:07:50;;;;;;;6.47;5.88;;;;;;;12.04;51.66;95809.91;4988183;28;20054;-74
2021/10/26 02:10:16;;;;;;;6.78;5.68;;;;;;;12.03;51.05;95818.97;4988456;28;20093;-74
2021/10/26 02:12:41;;;;;;;7.25;5.53;;;;;;;11.94;51.16;95821.53;4988605;28;20046;-75
2021/10/26 02:15:07;;;;;;;6.55;5.82;;;;;;;11.80;51.56;95808.16;4988703;28;20405;-74
2021/10/26 02:17:33;;;;;;;7.57;6.47;;;;;;;11.75;51.27;95820.78;4991043;28;20025;-75
2021/10/26 02:19:58;;;;;;;6.78;6.05;;;;;;;11.43;51.62;95782.47;4988777;28;20058;-74
2021/10/26 02:22:24;;;;;;;6.90;5.25;;;;;;;11.66;51.30;95826.78;4989006;28;20118;-74
2021/10/26 02:24:50;;;;;;;5.93;4.97;;;;;;;11.54;52.08;95825.69;4988627;28;20031;-75
2021/10/26 02:27:15;;;;;;;6.18;5.13;;;;;;;11.47;51.38;95825.28;4990003;28;20034;-74
2021/10/26 02:29:41;;;;;;;7.45;5.53;;;;;;;11.39;51.54;95827.53;5009946;28;20084;-75
2021/10/26 02:32:07;;;;;;;7.63;5.70;;;;;;;11.35;51.77;95837.19;4991797;28;20030;-74
2021/10/26 02:34:32;;;;;;;7.47;6.00;;;;;;;11.26;52.04;95830.94;4988647;28;20050;-74
2021/10/26 02:36:58;;;;;;;5.70;5.10;;;;;;;11.17;51.91;95830.81;4987794;28;20039;-74
2021/10/26 02:39:23;;;;;;;6.95;5.03;;;;;;;11.10;51.80;95819.72;4988290;28;20037;-74
2021/10/26 02:41:49;;;;;;;5.65;5.05;;;;;;;10.85;52.02;95793.50;4990774;28;20026;-75
2021/10/26 02:44:14;;;;;;;6.65;5.72;;;;;;;11.06;52.30;95839.25;4996051;28;20072;-75
2021/10/26 02:46:40;;;;;;;4.88;4.47;;;;;;;11.16;51.56;95841.75;4988803;28;20133;-76
2021/10/26 02:49:05;;;;;;;5.43;4.47;;;;;;;10.91;52.31;95826.97;4988278;28;20073;-75
2021/10/26 02:51:31;;;;;;;5.68;5.10;;;;;;;10.96;51.86;95836.75;4988757;28;20393;-74
2021/10/26 02:53:56;;;;;;;5.60;5.00;;;;;;;10.90;51.86;95836.81;4988170;28;20023;-75
2021/10/26 02:56:21;;;;;;;7.55;4.75;;;;;;;10.85;51.88;95839.56;4990801;28;20031;-74
2021/10/26 02:58:47;;;;;;;6.38;4.78;;;;;;;10.72;52.09;95818.97;4987873;28;20386;-74
2021/10/26 03:01:13;;;;;;;6.57;4.53;;;;;;;10.80;51.98;95847.59;4988279;28;20500;-75
2021/10/26 03:03:39;;;;;;;7.45;5.03;;;;;;;10.70;52.02;95839.75;4988178;28;20181;-75
2021/10/26 03:06:05;;;;;;;4.25;3.85;;;;;;;10.74;52.08;95851.41;4990051;28;20700;-74
2021/10/26 03:08:31;;;;;;;4.90;4.47;;;;;;;10.74;52.63;95842.63;4994347;28;20060;-74
2021/10/26 03:10:57;;;;;;;5.35;4.30;;;;;;;10.74;51.93;95843.41;4992123;28;20489;-75
2021/10/26 03:13:22;;;;;;;5.57;5.07;;;;;;;10.70;52.05;95850.41;4991446;28;20042;-75
2021/10/26 03:15:47;;;;;;;4.20;3.80;;;;;;;10.69;51.88;95851.47;5000328;28;20404;-75
2021/10/26 03:18:13;;;;;;;4.30;3.90;;;;;;;10.66;52.73;95849.38;4992081;28;20478;-74
2021/10/26 03:20:40;;;;;;;5.03;4.40;;;;;;;10.67;52.37;95853.63;4993913;28;20117;-74
2021/10/26 03:23:06;;;;;;;5.25;4.75;;;;;;;10.66;51.49;95852.06;4991952;28;20449;-74
2021/10/26 03:25:31;;;;;;;4.53;4.03;;;;;;;10.65;51.84;95861.13;4992119;28;20034;-74
2021/10/26 03:27:57;;;;;;;6.18;4.35;;;;;;;10.62;52.16;95851.03;4998686;28;20057;-75
2021/10/26 03:30:23;;;;;;;6.18;4.35;;;;;;;10.51;52.60;95846.94;4992187;28;20065;-75
2021/10/26 03:32:48;;;;;;;5.97;4.60;;;;;;;10.57;52.35;95848.44;4993354;28;20030;-74
2021/10/26 03:35:14;;;;;;;5.03;4.60;;;;;;;10.54;52.35;95851.66;4992144;28;20489;-74
2021/10/26 03:37:41;;;;;;;5.28;3.97;;;;;;;10.57;52.52;95856.41;4991972;28;20046;-74
2021/10/26 03:40:11;;;;;;;5.50;3.75;;;;;;;10.59;52.37;95867.56;4991571;28;20034;-74
2021/10/26 03:42:37;;;;;;;4.65;4.05;;;;;;;10.59;52.50;95849.72;4991286;28;20054;-73
2021/10/26 03:45:03;;;;;;;5.88;3.95;;;;;;;10.58;52.31;95855.34;4991523;28;20073;-74
2021/10/26 03:47:29;;;;;;;4.25;3.85;;;;;;;10.65;52.30;95861.13;5001523;28;20038;-74
2021/10/26 03:49:54;;;;;;;4.40;3.85;;;;;;;10.63;52.40;95847.28;4991366;28;20030;-73
2021/10/26 03:52:20;;;;;;;4.65;3.80;;;;;;;10.65;52.54;95856.59;4991418;28;20030;-76
2021/10/26 03:54:45;;;;;;;5.05;4.03;;;;;;;10.71;52.22;95865.28;4991358;28;20142;-73
2021/10/26 03:57:12;;;;;;;5.05;3.92;;;;;;;10.73;52.51;95865.78;4989780;28;20046;-73
2021/10/26 03:59:40;;;;;;;5.32;3.83;;;;;;;10.74;53.01;95870.03;4993570;28;20376;-73
2021/10/26 04:02:11;;;;;;;4.55;4.05;;;;;;;10.72;51.53;95866.88;5007307;28;20058;-73
2021/10/26 04:04:37;;;;;;;4.47;3.80;;;;;;;10.76;52.30;95877.75;5010999;28;20030;-75
2021/10/26 04:07:06;;;;;;;12.18;4.80;;;;;;;10.75;52.13;95871.63;5011178;28;20041;-75
2021/10/26 04:09:43;;;;;;;3.88;3.30;;;;;;;10.78;52.51;95884.34;5010806;28;20084;-75
2021/10/26 04:12:26;;;;;;;3.92;3.50;;;;;;;10.75;52.80;95874.28;5011277;28;20104;-73
2021/10/26 04:14:54;;;;;;;4.63;3.75;;;;;;;10.79;52.32;95877.94;4986049;28;20049;-75
2021/10/26 04:17:20;;;;;;;4.95;3.72;;;;;;;10.84;52.55;95879.75;5008386;28;20018;-76
2021/10/26 04:19:47;;;;;;;4.97;3.60;;;;;;;10.81;52.32;95881.13;4991033;28;20133;-75
2021/10/26 04:22:14;;;;;;;3.90;3.60;;;;;;;10.88;52.73;95886.88;4989832;28;20492;-73
2021/10/26 04:24:39;;;;;;;4.90;4.20;;;;;;;10.88;52.33;95886.88;4991070;28;20485;-73
2021/10/26 04:27:05;;;;;;;4.82;3.38;;;;;;;10.82;51.83;95881.91;4991129;28;20106;-74
2021/10/26 04:29:30;;;;;;;5.07;4.35;;;;;;;10.87;52.03;95889.81;4991863;28;20121;-75
2021/10/26 04:31:56;;;;;;;5.47;4.07;;;;;;;10.94;52.03;95893.69;4998877;28;20038;-73
2021/10/26 04:34:21;;;;;;;7.63;4.63;;;;;;;10.93;52.39;95889.47;4990456;28;20428;-73
2021/10/26 04:36:46;;;;;;;6.20;4.18;;;;;;;10.97;52.36;95895.00;4991216;28;20045;-73
2021/10/26 04:39:12;;;;;;;5.15;3.97;;;;;;;10.94;52.22;95895.56;4990595;28;20104;-75
2021/10/26 04:41:37;;;;;;;6.47;4.25;;;;;;;11.00;52.10;95898.94;4991541;28;20049;-75
2021/10/26 04:44:09;;;;;;;6.07;4.82;;;;;;;10.94;51.92;95893.69;4990027;28;20042;-75
2021/10/26 04:46:35;;;;;;;8.35;4.75;;;;;;;11.03;52.77;95901.06;4990776;28;20031;-75
2021/10/26 04:49:01;;;;;;;6.63;5.10;;;;;;;11.00;52.33;95899.75;4990694;28;20613;-75
2021/10/26 04:51:27;;;;;;;7.07;4.82;;;;;;;11.06;52.12;95903.16;4990997;28;20128;-74
2021/10/26 04:53:52;;;;;;;6.78;4.57;;;;;;;10.98;51.76;95895.81;4990356;28;20074;-74
2021/10/26 04:56:17;;;;;;;7.47;5.53;;;;;;;11.03;52.10;95904.50;4992429;28;20029;-75
2021/10/26 04:58:43;;;;;;;7.05;4.72;;;;;;;10.98;52.42;95893.94;4989737;28;20137;-75
2021/10/26 05:01:08;;;;;;;6.60;5.55;;;;;;;10.94;52.25;95906.22;4989959;28;20420;-76
2021/10/26 05:03:33;;;;;;;8.25;6.15;;;;;;;10.89;52.81;95891.09;4989701;28;20124;-74
2021/10/26 05:05:59;;;;;;;8.30;6.35;;;;;;;10.99;52.89;95908.81;4986608;23;20051;-64
2021/10/26 05:08:25;;;;;;;9.93;5.57;;;;;;;10.97;52.50;95902.22;4982497;28;20033;-66
2021/10/26 05:10:50;;;;;;;8.55;6.80;;;;;;;11.05;52.53;95904.22;4988927;28;20476;-64
2021/10/26 05:13:16;;;;;;;12.32;6.38;;;;;;;11.01;52.75;95906.66;4981024;28;20046;-65
2021/10/26 05:15:42;;;;;;;7.18;6.10;;;;;;;11.05;52.56;95912.19;4969605;28;20259;-64
2021/10/26 05:18:09;;;;;;;11.57;7.10;;;;;;;11.02;53.01;95902.94;4969782;28;20121;-64
2021/10/26 05:20:35;;;;;;;8.35;6.20;;;;;;;11.08;53.08;95909.75;4971420;28;20681;-65
2021/10/26 05:23:02;;;;;;;10.10;6.60;;;;;;;11.10;52.80;95914.78;4969481;28;20050;-65
2021/10/26 05:25:28;;;;;;;10.15;7.18;;;;;;;11.05;52.67;95906.88;4969765;28;20038;-65
2021/10/26 05:27:53;;;;;;;10.63;7.00;;;;;;;11.08;52.88;95919.63;4969257;28;20046;-65
2021/10/26 05:30:19;;;;;;;8.07;6.63;;;;;;;11.13;52.67;95923.00;4969254;28;20046;-65
2021/10/26 05:32:44;;;;;;;12.25;7.03;;;;;;;11.15;52.17;95926.16;4973063;28;20045;-63
2021/10/26 05:35:10;;;;;;;12.73;8.82;;;;;;;11.03;52.66;95909.03;4971942;28;20077;-69
2021/10/26 05:37:36;;;;;;;13.70;7.65;;;;;;;11.12;52.40;95923.28;4970611;28;20051;-66
2021/10/26 05:40:03;;;;;;;10.52;8.25;;;;;;;11.14;52.67;95931.78;4970519;28;20480;-63
2021/10/26 05:42:28;;;;;;;13.52;7.38;;;;;;;11.10;52.93;95936.09;4971786;28;20034;-66
2021/10/26 05:44:54;;;;;;;12.02;7.20;;;;;;;11.05;53.80;95920.19;4987047;28;20038;-66
2021/10/26 05:47:19;;;;;;;13.88;9.30;;;;;;;11.08;52.82;95930.25;4971692;28;20034;-64
2021/10/26 05:49:45;;;;;;;12.80;8.27;;;;;;;11.10;52.76;95928.88;4968656;28;20042;-66
2021/10/26 05:52:10;;;;;;;13.70;8.27;;;;;;;11.09;53.67;95927.31;4969163;28;20512;-65
2021/10/26 05:54:36;;;;;;;11.90;7.60;;;;;;;11.21;53.23;95940.22;4983935;28;20031;-65
2021/10/26 05:57:01;;;;;;;13.35;8.13;;;;;;;11.22;53.19;95943.66;4969089;28;20031;-65
2021/10/26 05:59:26;;;;;;;10.82;8.38;;;;;;;11.33;52.87;95947.75;4970027;28;20060;-64
2021/10/26 06:01:52;;;;;;;9.55;7.60;;;;;;;11.43;52.67;95939.63;4983886;28;20070;-65
2021/10/26 06:04:18;;;;;;;7.78;6.43;;;;;;;11.69;53.01;95950.69;4968455;28;20030;-65
2021/10/26 06:06:44;;;;;;;6.85;5.88;;;;;;;11.93;52.49;95948.72;4967633;28;20039;-66
2021/10/26 06:09:10;;;;;;;8.60;7.07;;;;;;;12.29;51.97;95950.78;4983470;28;21147;-66
2021/10/26 06:11:35;;;;;;;8.23;6.28;;;;;;;12.63;51.59;95966.41;4970901;28;20026;-65
2021/10/26 06:14:05;;;;;;;8.68;6.35;;;;;;;12.89;51.08;95969.34;4967145;28;20425;-66
2021/10/26 06:16:34;;;;;;;7.60;5.50;;;;;;;13.00;50.46;95956.63;4974915;28;20572;-66
2021/10/26 06:19:00;;;;;;;6.93;5.43;;;;;;;13.24;50.35;95975.09;4984666;28;20039;-66
2021/10/26 06:21:27;;;;;;;11.85;5.88;;;;;;;13.41;49.48;95969.91;4983922;28;20035;-66
2021/10/26 06:23:53;;;;;;;8.45;5.32;;;;;;;13.61;49.01;95975.88;4968210;28;20019;-65
2021/10/26 06:26:19;;;;;;;9.63;5.93;;;;;;;13.65;48.43;95963.50;4970585;28;20023;-65
2021/10/26 06:28:46;;;;;;;6.60;5.20;;;;;;;13.71;48.16;95975.66;4967327;28;20077;-66
2021/10/26 06:31:11;;;;;;;6.45;5.00;;;;;;;13.56;47.94;95960.75;4982998;28;20567;-67
2021/10/26 06:33:37;;;;;;;7.90;5.60;;;;;;;13.53;48.03;95978.19;4968392;28;20094;-66
2021/10/26 06:36:02;;;;;;;8.85;6.00;;;;;;;12.91;47.97;95908.44;4983663;28;20381;-66
2021/10/26 06:38:28;;;;;;;10.38;6.22;;;;;;;13.19;48.31;95972.50;4970465;28;20121;-70
2021/10/26 06:40:53;;;;;;;8.10;6.57;;;;;;;13.21;48.36;95997.88;4968456;28;20027;-64
2021/10/26 06:43:19;;;;;;;7.68;6.90;;;;;;;13.06;48.50;95973.31;4967749;28;20129;-67
2021/10/26 06:45:45;;;;;;;10.73;6.50;;;;;;;13.01;48.77;95982.22;4968433;28;20040;-65
2021/10/26 06:48:10;;;;;;;9.25;5.78;;;;;;;12.99;48.82;95981.72;4968163;28;20046;-67
2021/10/26 06:50:35;;;;;;;6.53;5.78;;;;;;;13.10;48.96;95996.44;4969859;28;20066;-66
2021/10/26 06:53:01;;;;;;;11.68;5.95;;;;;;;13.09;48.89;96010.09;4983135;28;20046;-66
2021/10/26 06:55:26;;;;;;;11.27;5.72;;;;;;;13.07;49.04;96006.94;4968487;28;20045;-65
2021/10/26 06:57:52;;;;;;;11.48;6.38;;;;;;;13.07;49.24;96006.94;4968713;28;20051;-65
2021/10/26 07:00:18;;;;;;;12.68;5.50;;;;;;;13.01;49.00;95998.25;4967362;28;20047;-64
2021/10/26 07:02:49;;;;;;;17.92;6.13;;;;;;;13.13;49.26;96005.75;4969954;28;20531;-64
2021/10/26 07:05:25;;;;;;;21.25;6.93;;;;;;;13.17;49.20;96012.09;4968240;28;20059;-65
2021/10/26 07:07:51;;;;;;;30.98;7.55;;;;;;;13.18;49.78;96019.00;4968503;28;20039;-64
2021/10/26 07:10:18;;;;;;;28.70;7.60;;;;;;;13.31;49.29;96014.75;4967783;28;20045;-65
2021/10/26 07:12:44;;;;;;;16.75;7.90;;;;;;;13.36;49.32;96014.63;4967921;28;20062;-63
2021/10/26 07:15:11;;;;;;;17.58;5.97;;;;;;;13.52;48.85;96016.72;4967573;28;20140;-64
2021/10/26 07:17:38;;;;;;;13.55;7.25;;;;;;;13.69;48.84;96024.06;4970232;28;20114;-64
2021/10/26 07:20:07;;;;;;;12.48;6.88;;;;;;;13.84;48.42;96020.28;4966494;28;20436;-63
2021/10/26 07:22:32;;;;;;;9.75;5.35;;;;;;;14.02;48.29;96027.34;4966785;28;20047;-63
2021/10/26 07:25:00;;;;;;;11.93;5.97;;;;;;;14.11;48.28;96032.72;4966889;28;20528;-63
2021/10/26 07:27:26;;;;;;;8.55;6.50;;;;;;;14.18;48.06;96010.94;4967016;28;20393;-63
2021/10/26 07:29:52;;;;;;;8.50;6.05;;;;;;;14.41;47.63;96027.75;4967714;28;20027;-63
2021/10/26 07:32:19;;;;;;;8.80;6.28;;;;;;;14.51;48.15;96022.94;4976587;28;20069;-63
2021/10/26 07:34:44;;;;;;;12.10;6.68;;;;;;;14.75;47.68;96051.28;4967689;28;20081;-63
2021/10/26 07:37:10;;;;;;;10.55;5.45;;;;;;;14.85;47.33;96036.81;4968166;28;20039;-67
2021/10/26 07:39:45;;;;;;;9.80;6.03;;;;;;;14.95;47.62;96037.34;4967658;28;20139;-64
2021/10/26 07:42:11;;;;;;;7.45;5.97;;;;;;;15.02;46.90;96037.66;4967989;28;20091;-62
2021/10/26 07:44:37;;;;;;;10.38;6.22;;;;;;;15.23;47.18;96047.81;4984118;28;20035;-64
2021/10/26 07:47:02;;;;;;;10.88;6.10;;;;;;;15.37;47.10;96042.34;4967883;28;20089;-64
2021/10/26 07:49:29;;;;;;;8.70;6.35;;;;;;;15.66;46.75;96041.78;4967535;28;20110;-62
2021/10/26 07:51:55;;;;;;;11.80;5.85;;;;;;;16.06;46.58;96055.84;4982628;28;20123;-64
2021/10/26 07:54:21;;;;;;;9.00;6.38;;;;;;;16.41;46.12;96047.78;4970623;28;20047;-68
2021/10/26 07:56:47;;;;;;;6.82;5.60;;;;;;;16.66;44.95;96038.88;4973299;28;20057;-65
2021/10/26 07:59:12;;;;;;;9.38;5.15;;;;;;;17.11;44.72;96052.66;4970339;28;20035;-64
2021/10/26 08:01:38;;;;;;;8.73;5.13;;;;;;;17.47;44.23;96047.88;4971231;28;20114;-66
2021/10/26 08:04:05;;;;;;;7.95;5.35;;;;;;;17.70;43.76;96043.75;4970759;28;20547;-66
2021/10/26 08:06:30;;;;;;;7.78;4.80;;;;;;;18.07;43.26;96058.28;4971255;28;20114;-66
2021/10/26 08:08:56;;;;;;;8.25;4.93;;;;;;;18.36;42.66;96053.88;4970593;28;20085;-65
2021/10/26 08:11:21;;;;;;;8.23;5.05;;;;;;;18.52;42.27;96051.34;4987927;28;20094;-64
2021/10/26 08:13:46;;;;;;;7.43;4.68;;;;;;;18.64;42.41;96054.88;4970718;28;20038;-63
2021/10/26 08:16:13;;;;;;;6.93;4.93;;;;;;;18.67;42.62;96064.19;4970974;28;20181;-64
2021/10/26 08:18:39;;;;;;;6.43;5.13;;;;;;;18.55;42.94;96056.09;4970405;28;20043;-64
2021/10/26 08:21:04;;;;;;;6.30;5.32;;;;;;;18.55;43.25;96053.41;4970959;28;20033;-64
2021/10/26 08:23:29;;;;;;;7.53;6.05;;;;;;;18.38;44.41;96048.97;4972628;28;20468;-62
2021/10/26 08:25:58;;;;;;;9.95;6.20;;;;;;;18.25;45.16;96058.91;4971185;28;20049;-62
2021/10/26 08:28:24;;;;;;;10.43;6.53;;;;;;;18.14;45.58;96060.41;4970759;28;20505;-63
2021/10/26 08:36:34;;;;;;;6.70;5.90;;;;;;;18.17;46.22;96049.00;4950594;28;20042;-63
2021/10/26 08:39:00;;;;;;;7.43;5.88;;;;;;;18.32;46.11;96063.75;4950897;28;20421;-63
2021/10/26 08:41:28;;;;;;;8.50;6.43;;;;;;;18.37;46.41;96063.53;4951860;29;20036;-63
2021/10/26 08:43:54;;;;;;;8.38;7.28;;;;;;;18.53;46.14;96061.81;4954093;28;20031;-65
2021/10/26 08:46:21;;;;;;;10.32;6.63;;;;;;;18.66;46.04;96051.84;4970315;28;20516;-65
2021/10/26 08:48:50;;;;;;;9.57;6.90;;;;;;;18.98;45.66;96066.44;4969809;28;20042;-64
2021/10/26 08:51:16;;;;;;;8.38;6.25;;;;;;;19.20;45.01;96062.53;4969106;28;20035;-65
2021/10/26 08:53:44;;;;;;;10.20;6.88;;;;;;;19.58;44.80;96074.88;4971960;28;20105;-64
2021/10/26 08:56:09;;;;;;;8.88;6.57;;;;;;;19.61;44.29;96072.34;4970698;28;20047;-66
2021/10/26 08:58:35;;;;;;;9.05;6.95;;;;;;;17.91;46.81;96058.06;4969736;28;20105;-68
2021/10/26 09:01:00;;;;;;;8.07;6.82;;;;;;;17.31;49.02;96063.78;4969826;28;20255;-64
2021/10/26 09:03:32;;;;;;;9.15;7.50;;;;;;;17.99;48.42;96069.88;4984226;28;20069;-65
2021/10/26 09:05:57;;;;;;;9.82;7.60;;;;;;;17.59;49.30;96064.09;4968889;28;20085;-65
2021/10/26 09:08:26;;;;;;;8.57;7.38;;;;;;;17.77;49.97;96070.22;4986725;28;20030;-64
2021/10/26 09:10:56;;;;;;;14.02;7.10;;;;;;;17.25;50.55;96065.06;4984497;28;20077;-67
2021/10/26 09:16:41;;;;;;;9.65;7.40;;;;;;;17.97;49.28;96074.03;4977771;28;20405;-67
2021/10/26 09:19:15;;;;;;;8.65;7.80;;;;;;;17.73;50.70;96069.28;4968492;28;20075;-64
2021/10/26 09:21:43;;;;;;;9.20;7.75;;;;;;;18.00;49.50;96066.06;4969741;28;20038;-66
2021/10/26 09:24:13;;;;;;;10.50;8.00;;;;;;;17.30;50.74;96067.56;4969660;28;20054;-65
2021/10/26 09:26:45;;;;;;;9.38;7.90;;;;;;;17.68;49.99;96062.16;4971912;28;20097;-63
2021/10/26 09:29:11;;;;;;;7.82;7.07;;;;;;;18.10;49.90;96062.97;4984738;28;20039;-62
2021/10/26 09:31:38;;;;;;;10.05;7.70;;;;;;;17.50;51.20;96071.44;4970429;28;20670;-68
2021/10/26 09:34:15;;;;;;;9.93;8.23;;;;;;;17.51;51.09;96063.06;4970129;28;20054;-66
2021/10/26 09:36:43;;;;;;;17.13;9.52;;;;;;;17.92;50.44;96075.00;4950773;28;20036;-65
2021/10/26 09:39:11;;;;;;;10.48;9.40;;;;;;;16.79;52.77;96072.06;4950291;28;20027;-65
2021/10/26 09:41:53;;;;;;;10.00;8.50;;;;;;;18.15;49.82;96070.84;4952281;29;20034;-64
2021/10/26 09:44:22;;;;;;;12.23;8.63;;;;;;;17.75;49.52;96064.34;4954693;28;20049;-65
2021/10/26 09:46:57;;;;;;;11.13;8.85;;;;;;;18.32;49.31;96064.53;4969329;28;20051;-64
2021/10/26 09:49:40;;;;;;;10.52;8.85;;;;;;;18.39;48.25;96082.88;4967952;28;20373;-64
2021/10/26 09:52:18;;;;;;;9.43;8.43;;;;;;;17.77;50.16;96075.59;4969811;28;20039;-64
2021/10/26 09:54:48;;;;;;;13.10;8.90;;;;;;;17.95;49.48;96070.84;4969114;28;20548;-64
2021/10/26 09:57:16;;;;;;;11.85;9.13;;;;;;;17.92;49.61;96080.41;4969630;28;20046;-64
2021/10/26 09:59:50;;;;;;;9.90;8.82;;;;;;;17.54;50.71;96067.75;4970474;28;20057;-63
2021/10/26 10:02:23;;;;;;;10.13;9.18;;;;;;;18.12;49.04;96070.75;4969486;28;20054;-64
2021/10/26 10:04:53;;;;;;;11.75;9.40;;;;;;;17.32;51.71;96076.13;4969126;28;20043;-65
2021/10/26 10:07:35;;;;;;;12.25;9.48;;;;;;;17.87;50.30;96077.91;4969214;28;20121;-64
2021/10/26 10:10:12;;;;;;;10.25;8.40;;;;;;;19.15;47.37;96073.53;4968741;28;20050;-65
2021/10/26 10:12:38;;;;;;;10.07;9.07;;;;;;;19.07;48.15;96061.72;4969107;28;20043;-63
2021/10/26 10:15:06;;;;;;;9.90;8.90;;;;;;;19.66;45.44;96050.50;4968220;28;20114;-63
2021/10/26 10:17:35;;;;;;;11.30;8.35;;;;;;;19.68;45.47;96058.25;4963112;28;20030;-63
2021/10/26 10:20:02;;;;;;;9.77;8.77;;;;;;;19.57;45.42;96062.53;4968749;28;20046;-64
2021/10/26 10:22:30;;;;;;;9.95;8.27;;;;;;;20.22;44.42;96061.41;4983573;28;20046;-65
2021/10/26 10:25:06;;;;;;;9.43;8.50;;;;;;;20.49;43.72;96056.38;4968644;28;20030;-64
2021/10/26 10:27:41;;;;;;;9.43;8.32;;;;;;;19.87;43.93;96054.97;4983720;28;20041;-64
2021/10/26 10:30:10;;;;;;;10.63;9.23;;;;;;;19.25;44.87;96051.53;4967841;28;20030;-64
2021/10/26 10:32:37;;;;;;;9.05;8.13;;;;;;;18.82;45.89;96060.91;4970536;28;20473;-64
2021/10/26 10:35:07;;;;;;;10.20;8.00;;;;;;;18.90;46.92;96059.25;4968615;28;20051;-65
2021/10/26 10:37:34;;;;;;;10.40;8.25;;;;;;;20.06;44.55;96049.72;4984009;28;20404;-65
2021/10/26 10:40:04;;;;;;;8.70;7.97;;;;;;;20.41;43.85;96051.84;4968589;28;20495;-65
2021/10/26 10:42:30;;;;;;;9.98;8.57;;;;;;;18.26;47.66;96059.69;4968422;28;20039;-64
2021/10/26 10:45:20;;;;;;;10.98;8.32;;;;;;;17.04;51.35;96043.50;4968437;28;20037;-66
2021/10/26 10:47:47;;;;;;;9.55;8.57;;;;;;;17.10;51.64;96048.38;4964513;28;20489;-65
2021/10/26 10:50:24;;;;;;;9.60;8.40;;;;;;;16.65;52.82;96061.47;4968200;28;20054;-65
2021/10/26 10:53:19;;;;;;;10.25;8.32;;;;;;;17.22;51.51;96054.97;4968247;28;20041;-65
2021/10/26 10:56:10;;;;;;;10.45;8.68;;;;;;;17.90;50.43;96055.69;4968863;28;20046;-65
2021/10/26 10:58:43;;;;;;;10.30;9.25;;;;;;;16.53;53.41;96047.91;4968260;28;20078;-65
2021/10/26 11:01:27;;;;;;;10.50;9.10;;;;;;;17.64;50.18;96037.00;4982461;28;20035;-65
2021/10/26 11:03:54;;;;;;;11.27;8.65;;;;;;;17.34;51.04;96047.78;4982882;28;20051;-64
2021/10/26 11:06:41;;;;;;;10.88;8.93;;;;;;;17.50;51.13;96058.75;5006177;23;20039;-72
2021/10/26 11:09:27;;;;;;;9.98;8.38;;;;;;;17.72;50.56;96046.16;4987376;28;20027;-72
2021/10/26 11:12:15;;;;;;;9.15;8.32;;;;;;;18.17;49.32;96049.78;4987859;28;20029;-73
2021/10/26 11:14:55;;;;;;;13.57;9.38;;;;;;;18.61;49.32;96052.06;4989264;28;20025;-72
2021/10/26 11:17:32;;;;;;;11.52;8.35;;;;;;;17.97;49.67;96061.34;4988019;28;20101;-70
2021/10/26 11:20:26;;;;;;;8.75;7.85;;;;;;;16.59;53.10;96063.53;4987390;28;20469;-69
2021/10/26 11:23:02;;;;;;;10.80;7.93;;;;;;;17.29;51.54;96061.41;4966843;28;20674;-69
2021/10/26 11:25:27;;;;;;;9.55;8.70;;;;;;;17.97;50.49;96066.75;4968518;28;20046;-72
2021/10/26 11:27:55;;;;;;;12.02;8.63;;;;;;;18.32;49.48;96061.81;4971703;28;20046;-79
2021/10/26 11:30:36;;;;;;;9.20;8.32;;;;;;;18.14;49.63;96068.50;4980497;28;20085;-82
2021/10/26 11:33:13;;;;;;;8.73;7.43;;;;;;;19.54;46.77;96050.47;4991392;28;20026;-79
2021/10/26 11:35:55;;;;;;;9.82;7.50;;;;;;;18.39;48.50;96061.31;4974253;28;20038;-77
2021/10/26 11:38:34;;;;;;;8.90;7.75;;;;;;;18.55;48.99;96061.47;4973221;28;20035;-72
2021/10/26 11:41:04;;;;;;;8.77;7.60;;;;;;;17.60;50.89;96054.91;4972305;28;20548;-76